Time;durP1;ratioP1;P1;durP2;ratioP2;P2;SDS_P1;SDS_P2;PMS_P1;PMS_P2;Temp;Humidity;BMP_temperature;BMP_pressure;BME280_temperature;BME280_humidity;BME280_pressure;Samples;Min_cycle;Max_cycle;Signal;HPM_P1;HPM_P2
2024/02/18 00:00:46;;;;;;;0.70;0.70;;;;;;;;;;6334059;28;20297;-58
2024/02/18 00:03:50;;;;;;;0.80;0.80;;;;;;;;;;6333588;28;20301;-56
2024/02/18 00:06:54;;;;;;;0.93;0.93;;;;;;;;;;6333863;28;20553;-57
2024/02/18 00:09:58;;;;;;;0.93;0.80;;;;;;;;;;6325720;28;20555;-56
2024/02/18 00:13:02;;;;;;;0.97;0.80;;;;;;;;;;6332817;28;20309;-57
2024/02/18 00:16:07;;;;;;;0.97;0.90;;;;;;;;;;6333487;28;20285;-57
2024/02/18 00:19:11;;;;;;;0.70;0.70;;;;;;;;;;6332680;28;20556;-57
2024/02/18 00:22:15;;;;;;;0.70;0.70;;;;;;;;;;6332854;28;20563;-57
2024/02/18 00:25:20;;;;;;;1.40;1.00;;;;;;;;;;6331869;28;20317;-57
2024/02/18 00:28:23;;;;;;;4.40;1.00;;;;;;;;;;6332923;28;20312;-57
2024/02/18 00:31:29;;;;;;;1.27;0.93;;;;;;;;;;6314726;28;20295;-57
2024/02/18 00:34:33;;;;;;;1.10;1.00;;;;;;;;;;6331070;28;20301;-58
2024/02/18 00:37:37;;;;;;;0.90;0.90;;;;;;;;;;6332304;28;20304;-62
2024/02/18 00:40:41;;;;;;;1.63;0.90;;;;;;;;;;6316734;28;20302;-57
2024/02/18 00:43:45;;;;;;;1.70;0.90;;;;;;;;;;6280866;28;20298;-56
2024/02/18 00:46:50;;;;;;;0.80;0.80;;;;;;;;;;6283105;28;20310;-57
2024/02/18 00:50:08;;;;;;;0.90;0.90;;;;;;;;;;6282839;28;20287;-57
2024/02/18 00:53:13;;;;;;;2.67;0.80;;;;;;;;;;6281341;28;20301;-58
2024/02/18 00:56:17;;;;;;;0.73;0.73;;;;;;;;;;6282326;28;20298;-57
2024/02/18 00:59:21;;;;;;;1.00;1.00;;;;;;;;;;6282184;28;20311;-57
2024/02/18 01:02:29;;;;;;;1.70;0.90;;;;;;;;;;6282585;28;20298;-57
2024/02/18 01:05:33;;;;;;;0.70;0.70;;;;;;;;;;6282166;28;20302;-57
2024/02/18 01:08:38;;;;;;;0.80;0.80;;;;;;;;;;6282588;28;20294;-55
2024/02/18 01:11:41;;;;;;;2.00;0.90;;;;;;;;;;6303018;28;20310;-54
2024/02/18 01:14:45;;;;;;;0.90;0.90;;;;;;;;;;6307079;28;20598;-57
2024/02/18 01:17:50;;;;;;;0.70;0.70;;;;;;;;;;6307016;28;20312;-58
2024/02/18 01:20:54;;;;;;;1.37;0.90;;;;;;;;;;6299168;28;20327;-57
2024/02/18 01:23:58;;;;;;;2.83;0.80;;;;;;;;;;6306439;28;20293;-56
2024/02/18 01:27:02;;;;;;;0.70;0.70;;;;;;;;;;6307719;28;20294;-57
2024/02/18 01:30:07;;;;;;;1.90;0.93;;;;;;;;;;6307047;28;20301;-57
2024/02/18 01:33:12;;;;;;;0.73;0.73;;;;;;;;;;6306693;28;20294;-56
2024/02/18 01:36:16;;;;;;;0.80;0.80;;;;;;;;;;6306879;28;20484;-56
2024/02/18 01:39:20;;;;;;;0.80;0.80;;;;;;;;;;6306543;28;20299;-56
2024/02/18 01:42:24;;;;;;;0.70;0.70;;;;;;;;;;6305643;28;20463;-56
2024/02/18 01:45:28;;;;;;;1.13;0.80;;;;;;;;;;6306073;28;20555;-52
2024/02/18 01:48:34;;;;;;;0.80;0.80;;;;;;;;;;6305995;28;20293;-56
2024/02/18 01:51:38;;;;;;;1.40;0.77;;;;;;;;;;6306582;28;20298;-56
2024/02/18 01:54:42;;;;;;;1.10;1.10;;;;;;;;;;6306366;28;20301;-55
2024/02/18 01:57:46;;;;;;;1.30;0.70;;;;;;;;;;6304408;28;20416;-56
2024/02/18 02:00:51;;;;;;;0.83;0.83;;;;;;;;;;6305059;28;20597;-56
2024/02/18 02:03:58;;;;;;;0.83;0.83;;;;;;;;;;6306412;28;20285;-56
2024/02/18 02:07:01;;;;;;;0.90;0.90;;;;;;;;;;6311679;28;20361;-54
2024/02/18 02:10:11;;;;;;;0.90;0.90;;;;;;;;;;6310178;28;20468;-56
2024/02/18 02:13:15;;;;;;;0.80;0.80;;;;;;;;;;6311140;28;20305;-53
2024/02/18 02:16:19;;;;;;;0.90;0.90;;;;;;;;;;6311385;28;20290;-57
2024/02/18 02:19:24;;;;;;;0.77;0.77;;;;;;;;;;6310958;28;20483;-56
2024/02/18 02:22:28;;;;;;;1.70;0.90;;;;;;;;;;6310581;28;20444;-56
2024/02/18 02:25:32;;;;;;;0.93;0.70;;;;;;;;;;6309572;28;20301;-56
2024/02/18 02:28:38;;;;;;;0.90;0.90;;;;;;;;;;6310346;28;20298;-55
2024/02/18 02:31:44;;;;;;;0.80;0.80;;;;;;;;;;6310387;28;20297;-55
2024/02/18 02:34:48;;;;;;;0.90;0.90;;;;;;;;;;6310517;28;20469;-56
2024/02/18 02:37:52;;;;;;;0.87;0.87;;;;;;;;;;6310730;28;20310;-56
2024/02/18 02:40:56;;;;;;;0.87;0.87;;;;;;;;;;6310183;28;20305;-57
2024/02/18 02:44:00;;;;;;;0.70;0.70;;;;;;;;;;6310397;28;20286;-56
2024/02/18 02:47:05;;;;;;;0.73;0.73;;;;;;;;;;6310657;28;20295;-56
2024/02/18 02:50:09;;;;;;;0.70;0.70;;;;;;;;;;6310057;28;20301;-57
2024/02/18 02:53:13;;;;;;;0.90;0.90;;;;;;;;;;6309650;28;20297;-55
2024/02/18 02:56:18;;;;;;;0.63;0.63;;;;;;;;;;6310172;28;20302;-55
2024/02/18 02:59:21;;;;;;;2.43;0.80;;;;;;;;;;6309561;28;20295;-56
2024/02/18 03:02:27;;;;;;;1.17;0.90;;;;;;;;;;6310236;28;20301;-57
2024/02/18 03:05:30;;;;;;;0.77;0.77;;;;;;;;;;6309993;28;20292;-56
2024/02/18 03:08:34;;;;;;;0.70;0.70;;;;;;;;;;6308983;28;20587;-56
2024/02/18 03:11:38;;;;;;;2.33;0.80;;;;;;;;;;6310164;28;20302;-56
2024/02/18 03:14:42;;;;;;;0.80;0.80;;;;;;;;;;6309434;28;20293;-55
2024/02/18 03:17:47;;;;;;;0.80;0.80;;;;;;;;;;6308010;28;20300;-56
2024/02/18 03:20:52;;;;;;;0.77;0.77;;;;;;;;;;6309877;28;20249;-57
2024/02/18 03:23:56;;;;;;;1.50;0.80;;;;;;;;;;6309362;28;20313;-56
2024/02/18 03:27:00;;;;;;;1.30;0.80;;;;;;;;;;6310026;28;20317;-56
2024/02/18 03:30:05;;;;;;;0.70;0.70;;;;;;;;;;6308105;28;20368;-56
2024/02/18 03:33:10;;;;;;;0.80;0.80;;;;;;;;;;6308301;28;20478;-56
2024/02/18 03:36:14;;;;;;;0.90;0.90;;;;;;;;;;6309235;28;20386;-56
2024/02/18 03:39:18;;;;;;;0.80;0.80;;;;;;;;;;6308696;28;20293;-57
2024/02/18 03:42:26;;;;;;;1.60;0.80;;;;;;;;;;6308494;28;20582;-56
2024/02/18 03:45:30;;;;;;;0.80;0.80;;;;;;;;;;6308086;28;20479;-56
2024/02/18 03:48:35;;;;;;;0.80;0.80;;;;;;;;;;6307883;28;20298;-56
2024/02/18 03:51:39;;;;;;;0.90;0.90;;;;;;;;;;6308991;28;20288;-56
2024/02/18 03:54:43;;;;;;;1.07;0.90;;;;;;;;;;6308015;28;20290;-56
2024/02/18 03:57:47;;;;;;;0.80;0.80;;;;;;;;;;6306895;28;20298;-57
2024/02/18 04:00:51;;;;;;;0.90;0.90;;;;;;;;;;6308282;28;20297;-56
2024/02/18 04:03:56;;;;;;;0.80;0.80;;;;;;;;;;6304360;28;20294;-57
2024/02/18 04:07:00;;;;;;;0.90;0.90;;;;;;;;;;6308420;28;20314;-57
2024/02/18 04:10:05;;;;;;;0.80;0.80;;;;;;;;;;6308236;28;20286;-55
2024/02/18 04:13:10;;;;;;;0.97;0.90;;;;;;;;;;6307936;28;20287;-56
2024/02/18 04:16:14;;;;;;;1.00;1.00;;;;;;;;;;6307958;28;20297;-54
2024/02/18 04:19:19;;;;;;;4.60;0.77;;;;;;;;;;6307324;28;20290;-57
2024/02/18 04:22:23;;;;;;;2.50;0.80;;;;;;;;;;6307406;28;20583;-56
2024/02/18 04:25:27;;;;;;;1.90;0.90;;;;;;;;;;6307833;28;20294;-55
2024/02/18 04:28:30;;;;;;;0.90;0.90;;;;;;;;;;6306788;28;20298;-56
2024/02/18 04:31:34;;;;;;;0.77;0.77;;;;;;;;;;6308122;28;20515;-55
2024/02/18 04:34:40;;;;;;;0.80;0.80;;;;;;;;;;6298777;28;20298;-54
2024/02/18 04:37:43;;;;;;;0.80;0.80;;;;;;;;;;6308253;28;20595;-56
2024/02/18 04:40:47;;;;;;;0.80;0.80;;;;;;;;;;6307809;28;20290;-57
2024/02/18 04:43:51;;;;;;;1.07;0.83;;;;;;;;;;6307113;28;20293;-56
2024/02/18 04:46:55;;;;;;;1.07;1.00;;;;;;;;;;6308175;28;20293;-54
2024/02/18 04:50:03;;;;;;;1.70;1.00;;;;;;;;;;6306883;28;20297;-55
2024/02/18 04:53:08;;;;;;;1.00;0.90;;;;;;;;;;6307525;28;20310;-55
2024/02/18 04:56:12;;;;;;;0.80;0.80;;;;;;;;;;6306464;28;20297;-56
2024/02/18 04:59:16;;;;;;;4.00;1.10;;;;;;;;;;6306013;28;20293;-55
2024/02/18 05:02:20;;;;;;;0.90;0.90;;;;;;;;;;6307236;28;20297;-55
2024/02/18 05:05:25;;;;;;;0.90;0.90;;;;;;;;;;6306497;28;20305;-57
2024/02/18 05:08:29;;;;;;;0.90;0.90;;;;;;;;;;6306478;28;20288;-57
2024/02/18 05:11:33;;;;;;;0.90;0.90;;;;;;;;;;6307268;28;20290;-56
2024/02/18 05:14:38;;;;;;;1.43;0.90;;;;;;;;;;6306742;28;20290;-56
2024/02/18 05:17:41;;;;;;;0.80;0.80;;;;;;;;;;6307031;28;20358;-55
2024/02/18 05:20:47;;;;;;;0.90;0.90;;;;;;;;;;6306657;28;20306;-54
2024/02/18 05:23:51;;;;;;;0.90;0.90;;;;;;;;;;6306235;28;20386;-56
2024/02/18 05:26:55;;;;;;;0.90;0.90;;;;;;;;;;6307257;28;20292;-57
2024/02/18 05:29:59;;;;;;;0.80;0.80;;;;;;;;;;6306340;28;20293;-54
2024/02/18 05:33:04;;;;;;;1.63;1.00;;;;;;;;;;6307188;28;20301;-55
2024/02/18 05:36:09;;;;;;;0.90;0.90;;;;;;;;;;6287970;28;20531;-55
2024/02/18 05:39:16;;;;;;;0.83;0.83;;;;;;;;;;6306825;28;20306;-55
2024/02/18 05:42:20;;;;;;;1.27;0.90;;;;;;;;;;6312066;28;20474;-55
2024/02/18 05:45:30;;;;;;;0.70;0.70;;;;;;;;;;6311147;28;20481;-55
2024/02/18 05:48:34;;;;;;;0.80;0.80;;;;;;;;;;6310935;28;20349;-56
2024/02/18 05:51:40;;;;;;;0.90;0.90;;;;;;;;;;6311463;28;20424;-56
2024/02/18 05:54:43;;;;;;;0.90;0.90;;;;;;;;;;6311074;28;20305;-55
2024/02/18 05:57:47;;;;;;;0.83;0.83;;;;;;;;;;6311867;28;20384;-56
2024/02/18 06:00:52;;;;;;;0.70;0.70;;;;;;;;;;6302922;28;20286;-56
2024/02/18 06:03:55;;;;;;;0.80;0.80;;;;;;;;;;6311069;28;20368;-56
2024/02/18 06:07:01;;;;;;;0.90;0.90;;;;;;;;;;6311804;28;20290;-57
2024/02/18 06:10:06;;;;;;;0.70;0.70;;;;;;;;;;6310902;28;20298;-56
2024/02/18 06:13:10;;;;;;;0.80;0.80;;;;;;;;;;6311259;28;20307;-57
2024/02/18 06:16:14;;;;;;;0.83;0.83;;;;;;;;;;6310734;28;20298;-56
2024/02/18 06:19:19;;;;;;;2.53;0.83;;;;;;;;;;6310628;28;20285;-57
2024/02/18 06:22:25;;;;;;;0.80;0.80;;;;;;;;;;6311004;28;20289;-55
2024/02/18 06:25:35;;;;;;;0.80;0.80;;;;;;;;;;6310579;28;20294;-56
2024/02/18 06:28:39;;;;;;;0.83;0.83;;;;;;;;;;6309594;28;20299;-55
2024/02/18 06:31:42;;;;;;;1.13;1.10;;;;;;;;;;6310172;28;20535;-56
2024/02/18 06:34:46;;;;;;;1.23;0.80;;;;;;;;;;6310287;28;20294;-56
2024/02/18 06:37:53;;;;;;;2.00;0.80;;;;;;;;;;6310493;28;20478;-57
2024/02/18 06:40:58;;;;;;;3.60;1.00;;;;;;;;;;6310344;28;20293;-57
2024/02/18 06:44:02;;;;;;;2.43;1.00;;;;;;;;;;6309931;28;20370;-57
2024/02/18 06:47:06;;;;;;;2.93;0.90;;;;;;;;;;6310826;28;20289;-56
2024/02/18 06:50:10;;;;;;;0.90;0.90;;;;;;;;;;6309301;28;20293;-56
2024/02/18 06:53:15;;;;;;;1.43;0.87;;;;;;;;;;6309048;28;20302;-55
2024/02/18 06:56:19;;;;;;;0.90;0.90;;;;;;;;;;6309658;28;20297;-57
2024/02/18 06:59:23;;;;;;;0.80;0.80;;;;;;;;;;6309527;28;20294;-57
2024/02/18 07:02:26;;;;;;;2.83;0.97;;;;;;;;;;6309981;28;20317;-58
2024/02/18 07:05:32;;;;;;;2.03;1.00;;;;;;;;;;6309960;28;20231;-55
2024/02/18 07:08:37;;;;;;;1.43;0.90;;;;;;;;;;6308875;28;20290;-58
2024/02/18 07:11:41;;;;;;;1.00;1.00;;;;;;;;;;6310119;28;20297;-57
2024/02/18 07:14:45;;;;;;;0.87;0.87;;;;;;;;;;6309537;28;20345;-58
2024/02/18 07:17:49;;;;;;;0.90;0.90;;;;;;;;;;6309625;28;20437;-58
2024/02/18 07:20:52;;;;;;;3.70;1.10;;;;;;;;;;6309199;28;20370;-54
2024/02/18 07:23:58;;;;;;;1.33;0.90;;;;;;;;;;6308872;28;20290;-58
2024/02/18 07:27:01;;;;;;;0.90;0.90;;;;;;;;;;6309645;28;20298;-55
2024/02/18 07:30:06;;;;;;;0.90;0.90;;;;;;;;;;6308708;28;20533;-56
2024/02/18 07:33:10;;;;;;;0.80;0.80;;;;;;;;;;6309592;28;20293;-57
2024/02/18 07:36:14;;;;;;;0.90;0.90;;;;;;;;;;6308784;28;20606;-56
2024/02/18 07:39:20;;;;;;;1.23;0.90;;;;;;;;;;6308604;28;20378;-57
2024/02/18 07:46:02;;;;;;;1.00;1.00;;;;;;;;;;6378182;23;20226;-59
2024/02/18 07:49:06;;;;;;;1.73;0.93;;;;;;;;;;6134607;29;20294;-56
2024/02/18 07:52:10;;;;;;;2.53;1.23;;;;;;;;;;6118413;29;20474;-56
2024/02/18 07:55:16;;;;;;;0.90;0.90;;;;;;;;;;6124205;29;20434;-56
2024/02/18 07:58:20;;;;;;;0.90;0.90;;;;;;;;;;6115093;29;20484;-57
2024/02/18 08:01:24;;;;;;;1.10;1.10;;;;;;;;;;6123067;29;20321;-57
2024/02/18 08:04:28;;;;;;;1.70;1.20;;;;;;;;;;6120369;29;20313;-57
2024/02/18 08:07:32;;;;;;;2.10;1.07;;;;;;;;;;6136885;29;20298;-56
2024/02/18 08:10:37;;;;;;;1.20;1.10;;;;;;;;;;6138034;29;20477;-55
2024/02/18 08:13:41;;;;;;;0.80;0.80;;;;;;;;;;6136914;29;20608;-57
2024/02/18 08:16:45;;;;;;;7.00;1.10;;;;;;;;;;6138118;29;20310;-58
2024/02/18 08:19:50;;;;;;;1.13;1.00;;;;;;;;;;6131462;29;20295;-56
2024/02/18 08:22:54;;;;;;;8.03;1.20;;;;;;;;;;6113724;29;20317;-56
2024/02/18 08:26:00;;;;;;;0.93;0.93;;;;;;;;;;6114295;29;20455;-55
2024/02/18 08:29:03;;;;;;;3.70;0.93;;;;;;;;;;6113663;29;20298;-57
2024/02/18 08:32:08;;;;;;;1.90;1.20;;;;;;;;;;6113877;29;20306;-57
2024/02/18 08:35:12;;;;;;;1.00;1.00;;;;;;;;;;6113555;29;20299;-56
2024/02/18 08:38:16;;;;;;;2.27;0.90;;;;;;;;;;6113429;29;20298;-55
2024/02/18 08:41:22;;;;;;;1.97;1.10;;;;;;;;;;6114174;29;20387;-57
2024/02/18 08:44:25;;;;;;;1.40;1.03;;;;;;;;;;6112887;29;20315;-56
2024/02/18 08:47:29;;;;;;;1.00;1.00;;;;;;;;;;6113357;29;20291;-56
2024/02/18 08:50:33;;;;;;;2.73;1.17;;;;;;;;;;6113889;29;20298;-55
2024/02/18 08:53:38;;;;;;;2.13;1.10;;;;;;;;;;6126100;29;20312;-53
2024/02/18 08:56:43;;;;;;;2.20;1.03;;;;;;;;;;6113867;29;20394;-54
2024/02/18 08:59:47;;;;;;;0.80;0.80;;;;;;;;;;6113434;29;20295;-56
2024/02/18 09:02:51;;;;;;;1.00;1.00;;;;;;;;;;6113378;29;20579;-56
2024/02/18 09:05:57;;;;;;;0.97;0.97;;;;;;;;;;6113787;29;20615;-55
2024/02/18 09:09:01;;;;;;;1.27;1.10;;;;;;;;;;6111764;29;20296;-55
2024/02/18 09:12:07;;;;;;;6.23;1.07;;;;;;;;;;6113560;29;20319;-56
2024/02/18 09:15:11;;;;;;;2.43;1.00;;;;;;;;;;6111924;29;20305;-55
2024/02/18 09:18:15;;;;;;;1.70;1.30;;;;;;;;;;6112280;29;20431;-57
2024/02/18 09:21:20;;;;;;;0.87;0.87;;;;;;;;;;6113342;29;20618;-58
2024/02/18 09:24:24;;;;;;;1.87;1.00;;;;;;;;;;6112786;29;20599;-56
2024/02/18 09:27:29;;;;;;;1.00;1.00;;;;;;;;;;6112775;29;20296;-54
2024/02/18 09:30:33;;;;;;;1.10;1.10;;;;;;;;;;6113484;29;20339;-55
2024/02/18 09:33:37;;;;;;;2.20;1.27;;;;;;;;;;6112697;29;20299;-55
2024/02/18 09:36:42;;;;;;;3.33;1.50;;;;;;;;;;6113459;29;20299;-55
2024/02/18 09:39:46;;;;;;;8.80;1.10;;;;;;;;;;6112984;29;20433;-55
2024/02/18 09:42:52;;;;;;;4.20;1.10;;;;;;;;;;6112896;29;20309;-57
2024/02/18 09:45:56;;;;;;;3.03;0.90;;;;;;;;;;6112728;29;20325;-56
2024/02/18 09:49:01;;;;;;;6.57;0.90;;;;;;;;;;6112831;29;20291;-57
2024/02/18 09:52:07;;;;;;;5.07;1.27;;;;;;;;;;6117241;29;20300;-54
2024/02/18 09:55:12;;;;;;;6.47;1.20;;;;;;;;;;6120357;29;20313;-56
2024/02/18 09:58:19;;;;;;;3.33;1.10;;;;;;;;;;6112659;29;20297;-56
2024/02/18 10:01:24;;;;;;;1.87;0.97;;;;;;;;;;6113238;29;20300;-56
2024/02/18 10:04:29;;;;;;;3.30;1.07;;;;;;;;;;6112882;29;20302;-56
2024/02/18 10:07:33;;;;;;;0.90;0.90;;;;;;;;;;6112616;29;20305;-58
2024/02/18 10:10:37;;;;;;;1.37;1.37;;;;;;;;;;6112680;29;20299;-56
2024/02/18 10:13:43;;;;;;;6.80;1.10;;;;;;;;;;6112494;29;20304;-54
2024/02/18 10:16:47;;;;;;;2.53;1.20;;;;;;;;;;6113038;29;20296;-55
2024/02/18 10:19:50;;;;;;;4.23;1.17;;;;;;;;;;6112618;29;20290;-55
2024/02/18 10:22:55;;;;;;;1.93;0.97;;;;;;;;;;6112675;29;20299;-56
2024/02/18 10:26:00;;;;;;;1.50;1.10;;;;;;;;;;6114967;29;20577;-56
2024/02/18 10:29:06;;;;;;;2.87;1.20;;;;;;;;;;6116754;29;20298;-57
2024/02/18 10:32:09;;;;;;;9.57;1.50;;;;;;;;;;6117773;29;20439;-58
2024/02/18 10:35:13;;;;;;;2.10;1.10;;;;;;;;;;6117420;29;20302;-59
2024/02/18 10:38:20;;;;;;;4.50;1.20;;;;;;;;;;6116599;29;20386;-56
2024/02/18 10:41:32;;;;;;;1.83;1.00;;;;;;;;;;6117775;29;20293;-54
2024/02/18 10:44:41;;;;;;;7.10;1.30;;;;;;;;;;6116229;29;20301;-57
2024/02/18 10:47:50;;;;;;;1.80;1.10;;;;;;;;;;6116448;29;20306;-55
2024/02/18 10:50:54;;;;;;;3.20;1.00;;;;;;;;;;6116728;29;20299;-57
2024/02/18 10:54:05;;;;;;;3.63;1.10;;;;;;;;;;6129262;29;20361;-54
2024/02/18 10:57:09;;;;;;;3.23;1.00;;;;;;;;;;6116342;29;20449;-57
2024/02/18 11:00:17;;;;;;;6.03;1.30;;;;;;;;;;6116299;29;20302;-57
2024/02/18 11:03:24;;;;;;;1.10;1.00;;;;;;;;;;6116109;29;20299;-56
2024/02/18 11:06:28;;;;;;;6.50;1.30;;;;;;;;;;6116694;29;20306;-57
2024/02/18 11:09:33;;;;;;;3.80;1.30;;;;;;;;;;6115671;29;20301;-56
2024/02/18 11:12:38;;;;;;;1.50;1.37;;;;;;;;;;6115989;29;20299;-57
2024/02/18 11:15:44;;;;;;;2.07;1.00;;;;;;;;;;6116476;29;20308;-55
2024/02/18 11:18:49;;;;;;;3.30;1.13;;;;;;;;;;6115311;29;20494;-56
2024/02/18 11:21:53;;;;;;;1.33;1.10;;;;;;;;;;6116166;29;20300;-57
2024/02/18 11:24:57;;;;;;;1.87;1.57;;;;;;;;;;6115523;29;20292;-55
2024/02/18 11:28:01;;;;;;;4.20;1.40;;;;;;;;;;6115514;29;20302;-56
2024/02/18 11:31:08;;;;;;;12.60;1.38;;;;;;;;;;6114764;29;20694;-61
2024/02/18 11:34:12;;;;;;;4.97;1.20;;;;;;;;;;6115274;29;20308;-61
2024/02/18 11:37:29;;;;;;;6.37;1.20;;;;;;;;;;6114524;29;20294;-61
2024/02/18 11:40:35;;;;;;;6.50;1.27;;;;;;;;;;6115085;29;20299;-60
2024/02/18 11:43:40;;;;;;;6.60;1.10;;;;;;;;;;6114698;29;20289;-61
2024/02/18 11:46:46;;;;;;;2.03;1.20;;;;;;;;;;6114766;29;20323;-61
2024/02/18 11:49:49;;;;;;;6.77;1.33;;;;;;;;;;6113997;29;20490;-61
2024/02/18 11:52:54;;;;;;;4.43;1.03;;;;;;;;;;6125326;29;20292;-62
2024/02/18 11:55:58;;;;;;;6.60;1.30;;;;;;;;;;6108005;29;20310;-61
2024/02/18 11:59:02;;;;;;;9.57;1.73;;;;;;;;;;6091128;29;20300;-61
2024/02/18 12:02:08;;;;;;;3.00;1.20;;;;;;;;;;6091291;29;20293;-62
2024/02/18 12:05:12;;;;;;;8.93;1.20;;;;;;;;;;6090646;29;20311;-61
2024/02/18 12:08:16;;;;;;;3.57;1.10;;;;;;;;;;6090713;29;20311;-62
2024/02/18 12:11:20;;;;;;;3.93;1.13;;;;;;;;;;6091437;29;20585;-61
2024/02/18 12:14:24;;;;;;;3.83;1.10;;;;;;;;;;6103861;29;20300;-61
2024/02/18 12:17:29;;;;;;;4.50;1.20;;;;;;;;;;6090771;29;20594;-61
2024/02/18 12:20:33;;;;;;;5.40;0.90;;;;;;;;;;6090863;29;20293;-61
2024/02/18 12:23:40;;;;;;;4.10;1.07;;;;;;;;;;6090377;29;20306;-61
2024/02/18 12:26:44;;;;;;;3.60;0.90;;;;;;;;;;6090798;29;20339;-60
2024/02/18 12:29:50;;;;;;;2.10;0.90;;;;;;;;;;6090209;29;20302;-61
2024/02/18 12:32:56;;;;;;;3.77;1.13;;;;;;;;;;6090087;29;20296;-61
2024/02/18 12:36:03;;;;;;;4.97;1.30;;;;;;;;;;6090652;29;20299;-61
2024/02/18 12:39:07;;;;;;;2.60;1.20;;;;;;;;;;6090970;29;20596;-60
2024/02/18 12:42:11;;;;;;;1.33;1.10;;;;;;;;;;6090909;29;20308;-61
2024/02/18 12:45:21;;;;;;;2.83;1.20;;;;;;;;;;6090111;29;20492;-62
2024/02/18 12:48:46;;;;;;;1.77;1.03;;;;;;;;;;6089667;29;20304;-62
2024/02/18 12:51:51;;;;;;;1.60;0.97;;;;;;;;;;6094870;29;20297;-62
2024/02/18 12:55:03;;;;;;;1.33;1.23;;;;;;;;;;6123623;29;20296;-60
2024/02/18 12:58:07;;;;;;;1.37;1.27;;;;;;;;;;6113397;29;20338;-60
2024/02/18 13:01:12;;;;;;;3.13;1.37;;;;;;;;;;6114157;29;20333;-61
2024/02/18 13:04:20;;;;;;;1.30;1.10;;;;;;;;;;6113466;29;20590;-61
2024/02/18 13:07:24;;;;;;;4.30;1.70;;;;;;;;;;6113683;29;20611;-61
2024/02/18 13:10:28;;;;;;;5.70;1.80;;;;;;;;;;6113330;29;20303;-61
2024/02/18 13:13:32;;;;;;;4.27;1.50;;;;;;;;;;6113110;29;20334;-60
2024/02/18 13:16:36;;;;;;;1.93;1.33;;;;;;;;;;6113453;29;20300;-60
2024/02/18 13:19:43;;;;;;;1.00;1.00;;;;;;;;;;6112745;29;20302;-61
2024/02/18 13:22:48;;;;;;;5.47;1.47;;;;;;;;;;6112612;29;20355;-63
2024/02/18 13:25:53;;;;;;;5.87;1.30;;;;;;;;;;6112952;29;20349;-61
2024/02/18 13:28:59;;;;;;;5.50;0.87;;;;;;;;;;6112738;29;20299;-61
2024/02/18 13:32:04;;;;;;;5.70;1.60;;;;;;;;;;6113292;29;20296;-60
2024/02/18 13:35:09;;;;;;;4.03;1.10;;;;;;;;;;6112930;29;20534;-60
2024/02/18 13:38:13;;;;;;;7.93;1.27;;;;;;;;;;6112463;29;20305;-62
2024/02/18 13:41:17;;;;;;;1.00;1.00;;;;;;;;;;6112920;29;20583;-61
2024/02/18 13:44:21;;;;;;;2.30;0.90;;;;;;;;;;6112508;29;20306;-61
2024/02/18 13:47:25;;;;;;;3.10;1.00;;;;;;;;;;6113228;29;20293;-61
2024/02/18 13:50:30;;;;;;;1.83;1.17;;;;;;;;;;6112409;29;20292;-61
2024/02/18 13:53:35;;;;;;;3.70;1.00;;;;;;;;;;6125258;29;20432;-60
2024/02/18 13:56:41;;;;;;;1.93;1.10;;;;;;;;;;6112496;29;20371;-60
2024/02/18 13:59:45;;;;;;;1.27;1.23;;;;;;;;;;6112291;29;20306;-60
2024/02/18 14:02:49;;;;;;;4.03;1.20;;;;;;;;;;6116989;29;20311;-60
2024/02/18 14:05:56;;;;;;;6.03;1.10;;;;;;;;;;6117569;29;20366;-60
2024/02/18 14:09:05;;;;;;;1.50;0.93;;;;;;;;;;6116809;29;20563;-60
2024/02/18 14:12:09;;;;;;;1.23;0.97;;;;;;;;;;6117189;29;20619;-61
2024/02/18 14:15:13;;;;;;;5.93;1.27;;;;;;;;;;6116644;29;20309;-60
2024/02/18 14:18:18;;;;;;;0.90;0.90;;;;;;;;;;6116741;29;20310;-60
2024/02/18 14:21:23;;;;;;;3.03;0.97;;;;;;;;;;6117243;29;20364;-62
2024/02/18 14:24:27;;;;;;;3.00;1.07;;;;;;;;;;6116473;29;20450;-60
2024/02/18 14:27:31;;;;;;;4.73;0.93;;;;;;;;;;6116537;29;20302;-61
2024/02/18 14:30:35;;;;;;;7.30;0.90;;;;;;;;;;6117279;29;20298;-61
2024/02/18 14:33:38;;;;;;;1.17;1.03;;;;;;;;;;6114829;29;20302;-61
2024/02/18 14:36:44;;;;;;;1.70;1.10;;;;;;;;;;6117025;29;20301;-61
2024/02/18 14:39:48;;;;;;;6.37;1.57;;;;;;;;;;6116323;29;20300;-61
2024/02/18 14:42:52;;;;;;;9.07;1.10;;;;;;;;;;6116136;29;20318;-61
2024/02/18 14:45:56;;;;;;;2.00;1.10;;;;;;;;;;6116755;29;20604;-61
2024/02/18 14:49:00;;;;;;;5.60;1.23;;;;;;;;;;6116332;29;20302;-61
2024/02/18 14:52:07;;;;;;;1.70;1.60;;;;;;;;;;6120703;29;20290;-61
2024/02/18 14:55:11;;;;;;;8.73;1.43;;;;;;;;;;6124293;29;20305;-60
2024/02/18 14:58:15;;;;;;;1.57;1.47;;;;;;;;;;6116255;29;20600;-60
2024/02/18 15:01:19;;;;;;;1.80;1.30;;;;;;;;;;6116213;29;20306;-62
2024/02/18 15:04:23;;;;;;;2.83;1.43;;;;;;;;;;6115668;29;20328;-61
2024/02/18 15:07:29;;;;;;;5.50;1.83;;;;;;;;;;6115688;29;20545;-62
2024/02/18 15:10:33;;;;;;;1.93;1.23;;;;;;;;;;6115934;29;20306;-61
2024/02/18 15:13:36;;;;;;;1.40;1.27;;;;;;;;;;6114335;29;20321;-61
2024/02/18 15:16:40;;;;;;;3.77;1.60;;;;;;;;;;6116062;29;20306;-61
2024/02/18 15:19:44;;;;;;;7.70;1.30;;;;;;;;;;6115740;29;20310;-61
2024/02/18 15:22:50;;;;;;;1.20;1.20;;;;;;;;;;6115055;29;20300;-60
2024/02/18 15:25:55;;;;;;;1.67;1.23;;;;;;;;;;6116087;29;20293;-62
2024/02/18 15:28:59;;;;;;;1.47;1.00;;;;;;;;;;6115196;29;20309;-62
2024/02/18 15:32:03;;;;;;;2.53;1.20;;;;;;;;;;6115757;29;20367;-60
2024/02/18 15:35:08;;;;;;;4.83;1.40;;;;;;;;;;6115585;29;20291;-61
2024/02/18 15:38:13;;;;;;;2.10;1.37;;;;;;;;;;6115157;29;20472;-60
2024/02/18 15:41:17;;;;;;;2.63;1.20;;;;;;;;;;6115336;29;20301;-60
2024/02/18 15:44:21;;;;;;;1.30;1.20;;;;;;;;;;6115021;29;20300;-62
2024/02/18 15:47:26;;;;;;;1.90;0.97;;;;;;;;;;6115336;29;20299;-60
2024/02/18 15:50:30;;;;;;;1.17;1.07;;;;;;;;;;6114824;29;20307;-60
2024/02/18 15:53:35;;;;;;;3.33;1.20;;;;;;;;;;6128052;29;20446;-62
2024/02/18 15:56:40;;;;;;;1.10;1.10;;;;;;;;;;6115141;29;20563;-62
2024/02/18 15:59:43;;;;;;;4.73;1.23;;;;;;;;;;6114299;29;20431;-62
2024/02/18 16:02:47;;;;;;;1.30;1.20;;;;;;;;;;6114330;29;20340;-62
2024/02/18 16:05:51;;;;;;;1.40;1.30;;;;;;;;;;6114806;29;20299;-62
2024/02/18 16:08:56;;;;;;;7.70;1.30;;;;;;;;;;6114421;29;20486;-62
2024/02/18 16:12:00;;;;;;;2.10;1.17;;;;;;;;;;6115158;29;20296;-62
2024/02/18 16:15:06;;;;;;;2.10;1.37;;;;;;;;;;6114394;29;20290;-62
2024/02/18 16:18:10;;;;;;;2.70;1.23;;;;;;;;;;6114075;29;20303;-62
2024/02/18 16:21:14;;;;;;;1.40;1.30;;;;;;;;;;6114735;29;20296;-62
2024/02/18 16:24:19;;;;;;;1.77;1.13;;;;;;;;;;6113895;29;20303;-61
2024/02/18 16:27:23;;;;;;;4.47;1.43;;;;;;;;;;6114760;29;20299;-61
2024/02/18 16:30:27;;;;;;;3.90;1.20;;;;;;;;;;6114177;29;20292;-61
2024/02/18 16:33:31;;;;;;;1.77;1.30;;;;;;;;;;6114478;29;20303;-61
2024/02/18 16:36:35;;;;;;;2.50;1.20;;;;;;;;;;6114777;29;20314;-61
2024/02/18 16:39:44;;;;;;;1.00;1.00;;;;;;;;;;6113888;29;20470;-60
2024/02/18 16:42:50;;;;;;;2.33;1.10;;;;;;;;;;6113730;29;20293;-62
2024/02/18 16:45:54;;;;;;;1.17;1.17;;;;;;;;;;6113938;29;20292;-62
2024/02/18 16:48:58;;;;;;;1.33;1.23;;;;;;;;;;6113597;29;20300;-61
2024/02/18 16:52:05;;;;;;;1.47;1.37;;;;;;;;;;6118025;29;20291;-62
2024/02/18 16:55:11;;;;;;;1.53;1.50;;;;;;;;;;6121955;29;20591;-61
2024/02/18 16:58:16;;;;;;;1.43;1.40;;;;;;;;;;6113320;29;20295;-60
2024/02/18 17:01:20;;;;;;;2.60;1.40;;;;;;;;;;6113740;29;20308;-60
2024/02/18 17:04:24;;;;;;;1.27;1.27;;;;;;;;;;6113049;29;20304;-60
2024/02/18 17:07:28;;;;;;;1.63;1.53;;;;;;;;;;6113754;29;20314;-62
2024/02/18 17:10:34;;;;;;;1.60;1.60;;;;;;;;;;6113758;29;20299;-61
2024/02/18 17:13:38;;;;;;;1.47;1.20;;;;;;;;;;6113171;29;20302;-61
2024/02/18 17:16:42;;;;;;;1.67;1.57;;;;;;;;;;6113976;29;20334;-61
2024/02/18 17:19:47;;;;;;;1.10;1.10;;;;;;;;;;6113023;29;20303;-61
2024/02/18 17:22:51;;;;;;;1.20;1.20;;;;;;;;;;6112932;29;21270;-62
2024/02/18 17:25:56;;;;;;;1.30;1.30;;;;;;;;;;6113455;29;20295;-61
2024/02/18 17:29:01;;;;;;;2.20;1.30;;;;;;;;;;6113404;29;20375;-62
2024/02/18 17:32:07;;;;;;;2.60;1.07;;;;;;;;;;6113642;29;20298;-61
2024/02/18 17:35:11;;;;;;;1.43;1.37;;;;;;;;;;6112528;29;20310;-61
2024/02/18 17:38:15;;;;;;;3.20;1.53;;;;;;;;;;6113126;29;20316;-61
2024/02/18 17:41:21;;;;;;;1.40;1.30;;;;;;;;;;6113515;29;20303;-62
2024/02/18 17:44:24;;;;;;;2.20;1.33;;;;;;;;;;6117286;29;20299;-61
2024/02/18 17:47:28;;;;;;;1.50;1.50;;;;;;;;;;6129261;29;20302;-60
2024/02/18 17:50:41;;;;;;;3.07;1.60;;;;;;;;;;6113387;29;20614;-60
2024/02/18 17:53:53;;;;;;;1.30;1.30;;;;;;;;;;6123757;29;20467;-61
2024/02/18 17:56:59;;;;;;;3.10;1.30;;;;;;;;;;6112483;29;20295;-61
2024/02/18 18:00:28;;;;;;;1.80;1.50;;;;;;;;;;6112711;29;20291;-60
2024/02/18 18:03:33;;;;;;;1.50;1.40;;;;;;;;;;6135846;29;20308;-61
2024/02/18 18:06:37;;;;;;;1.27;1.27;;;;;;;;;;6136689;29;20315;-61
2024/02/18 18:09:41;;;;;;;1.30;1.30;;;;;;;;;;6135741;29;20295;-61
2024/02/18 18:12:47;;;;;;;1.20;1.20;;;;;;;;;;6135715;29;20294;-61
2024/02/18 18:15:53;;;;;;;3.93;1.50;;;;;;;;;;6136210;29;20468;-61
2024/02/18 18:18:58;;;;;;;1.53;1.20;;;;;;;;;;6123535;29;20292;-61
2024/02/18 18:22:03;;;;;;;3.10;1.23;;;;;;;;;;6113197;29;20295;-62
2024/02/18 18:25:09;;;;;;;1.40;1.40;;;;;;;;;;6112684;29;20291;-61
2024/02/18 18:28:17;;;;;;;2.53;1.47;;;;;;;;;;6112398;29;20294;-60
2024/02/18 18:31:22;;;;;;;1.47;1.47;;;;;;;;;;6112891;29;20309;-61